Time;durP1;ratioP1;P1;durP2;ratioP2;P2;SDS_P1;SDS_P2;PMS_P1;PMS_P2;Temp;Humidity;BMP_temperature;BMP_pressure;BME280_temperature;BME280_humidity;BME280_pressure;Samples;Min_cycle;Max_cycle;Signal;HPM_P1;HPM_P2
2021/05/05 00:05:12;;;;;;;5.20;4.30;;;;;;;10.33;93.89;99060.75;20739000;28;20700;-70
2021/05/05 00:15:23;;;;;;;4.60;4.20;;;;;;;10.05;93.53;99056.81;20747793;28;20276;-70
2021/05/05 00:25:23;;;;;;;4.47;4.07;;;;;;;10.03;94.89;99048.06;20747007;28;20283;-70
2021/05/05 00:35:24;;;;;;;3.42;3.15;;;;;;;10.05;97.20;99035.47;20746366;28;20244;-70
2021/05/05 00:45:25;;;;;;;2.83;2.63;;;;;;;10.26;97.75;99028.44;20745031;28;20312;-68
2021/05/05 00:55:26;;;;;;;3.80;2.50;;;;;;;10.51;95.77;99037.00;20743630;28;20267;-70
2021/05/05 01:05:26;;;;;;;3.20;2.90;;;;;;;10.61;95.85;99048.59;20743740;28;20459;-69
2021/05/05 01:15:28;;;;;;;3.00;2.58;;;;;;;10.65;95.25;99044.69;20742543;28;20220;-69
2021/05/05 01:25:28;;;;;;;3.47;2.80;;;;;;;10.50;96.35;99046.00;20742259;28;20255;-67
2021/05/05 01:35:29;;;;;;;3.45;3.10;;;;;;;10.24;98.20;99040.19;20740372;28;20295;-60
2021/05/05 01:55:46;;;;;;;3.60;3.30;;;;;;;9.58;100.00;99026.88;20808603;28;20594;-64
2021/05/05 02:05:47;;;;;;;3.07;2.83;;;;;;;9.37;100.00;99024.16;20802219;28;20284;-66
2021/05/05 02:15:47;;;;;;;3.57;3.27;;;;;;;9.26;100.00;99023.31;20801835;28;20318;-64
2021/05/05 02:25:47;;;;;;;3.50;3.20;;;;;;;9.13;100.00;99014.59;20801074;28;20222;-64
2021/05/05 02:35:49;;;;;;;3.20;3.00;;;;;;;9.11;100.00;99019.19;20800449;28;20238;-65
2021/05/05 02:45:50;;;;;;;2.80;2.57;;;;;;;8.90;100.00;99022.56;20798832;28;20284;-60
2021/05/05 02:55:50;;;;;;;3.80;3.50;;;;;;;8.71;100.00;99014.31;20798358;28;20239;-59
2021/05/05 03:05:51;;;;;;;3.67;3.33;;;;;;;8.59;100.00;98994.84;20749353;28;20246;-59
2021/05/05 03:15:51;;;;;;;4.23;3.83;;;;;;;8.63;100.00;98995.47;20741086;28;20215;-60
2021/05/05 03:25:53;;;;;;;4.67;3.60;;;;;;;8.82;100.00;99014.34;20741490;28;20219;-60
2021/05/05 03:45:49;;;;;;;4.07;3.20;;;;;;;9.97;100.00;99024.63;20972791;27;21030;-61
2021/05/05 03:55:49;;;;;;;3.07;2.87;;;;;;;10.03;98.79;99027.59;20966257;28;20261;-59
2021/05/05 04:05:50;;;;;;;2.67;2.47;;;;;;;11.26;96.29;99028.72;20966269;28;20453;-60
2021/05/05 04:15:50;;;;;;;2.70;2.50;;;;;;;12.55;88.69;99033.91;20965359;28;20215;-59
2021/05/05 04:25:51;;;;;;;2.63;2.40;;;;;;;13.57;83.91;99042.06;20964774;28;20296;-59
2021/05/05 04:35:51;;;;;;;4.10;2.67;;;;;;;13.69;80.09;99039.03;20963532;28;20236;-59
2021/05/05 04:45:52;;;;;;;3.30;2.40;;;;;;;13.44;81.48;99039.72;20962457;28;20229;-60
2021/05/05 04:55:52;;;;;;;3.10;2.80;;;;;;;13.30;80.87;99038.38;20875944;28;20283;-62
2021/05/05 05:05:52;;;;;;;2.97;2.60;;;;;;;13.19;79.95;99024.31;20822767;28;20221;-62
2021/05/05 05:15:53;;;;;;;9.83;6.50;;;;;;;13.02;80.07;99033.09;20823260;28;20217;-60
2021/05/05 05:25:54;;;;;;;2.80;2.50;;;;;;;12.95;80.47;99030.16;20822579;28;20818;-71
2021/05/05 05:35:54;;;;;;;4.37;3.37;;;;;;;13.55;78.52;99042.22;20820840;28;20252;-69
2021/05/05 05:45:55;;;;;;;3.10;2.40;;;;;;;14.35;75.64;99044.13;20820741;28;20451;-68
2021/05/05 05:55:55;;;;;;;10.87;6.37;;;;;;;14.75;75.64;99057.06;20819882;28;20215;-69
2021/05/05 06:05:56;;;;;;;4.80;3.73;;;;;;;15.62;72.71;99047.19;20818778;28;20309;-66
2021/05/05 06:15:57;;;;;;;15.67;8.83;;;;;;;16.26;68.72;99029.56;20817647;28;20244;-68
2021/05/05 06:25:58;;;;;;;3.43;2.10;;;;;;;16.82;66.45;99036.84;20800307;28;20239;-67
2021/05/05 06:35:58;;;;;;;2.80;2.23;;;;;;;16.67;65.71;99036.69;20815815;28;20208;-63
2021/05/05 06:45:59;;;;;;;2.50;2.30;;;;;;;16.17;65.04;99034.09;20816378;28;20216;-61
2021/05/05 06:56:00;;;;;;;9.97;7.73;;;;;;;15.29;65.11;99036.25;20814561;28;20593;-68
2021/05/05 07:06:01;;;;;;;2.80;2.20;;;;;;;14.66;65.00;99046.41;20814745;28;20672;-67
2021/05/05 07:16:02;;;;;;;2.23;1.50;;;;;;;14.18;64.67;99044.94;20812656;28;20257;-69
2021/05/05 07:26:03;;;;;;;2.93;1.73;;;;;;;14.39;65.54;99015.09;20813714;28;20290;-69
2021/05/05 07:36:04;;;;;;;3.67;1.80;;;;;;;16.03;63.49;99035.59;20812998;28;20262;-62
2021/05/05 07:46:16;;;;;;;2.43;1.80;;;;;;;16.19;58.21;99029.38;20811519;28;20455;-61
2021/05/05 07:56:16;;;;;;;2.30;1.37;;;;;;;15.99;57.63;99028.84;20812582;28;20226;-60
2021/05/05 08:06:17;;;;;;;2.63;1.13;;;;;;;16.70;58.11;99012.09;20812156;28;20686;-61
2021/05/05 08:16:18;;;;;;;2.07;1.43;;;;;;;16.91;55.19;99016.97;20811777;28;20231;-62
2021/05/05 08:26:19;;;;;;;2.97;1.50;;;;;;;15.99;56.55;99034.22;20815911;28;20219;-61
2021/05/05 08:36:20;;;;;;;5.33;1.80;;;;;;;15.72;57.96;99029.09;20826287;28;20242;-61
2021/05/05 08:46:21;;;;;;;2.70;1.40;;;;;;;16.62;57.66;99022.88;20825692;28;20308;-65
2021/05/05 08:56:21;;;;;;;4.33;1.50;;;;;;;18.10;58.35;99015.03;20823659;28;20231;-62
2021/05/05 09:06:47;;;;;;;1.80;1.40;;;;;;;18.75;50.93;99011.00;20824083;28;20208;-63
2021/05/05 09:16:47;;;;;;;3.13;1.40;;;;;;;18.65;50.48;99005.88;20823344;28;20229;-61
2021/05/05 09:26:50;;;;;;;1.60;1.30;;;;;;;18.60;53.28;99008.25;20822339;28;20744;-61
2021/05/05 09:36:59;;;;;;;2.63;1.57;;;;;;;18.30;52.95;98996.50;20821519;28;20673;-61
2021/05/05 09:47:00;;;;;;;3.13;1.70;;;;;;;18.43;54.49;98995.91;20819601;28;20231;-62
2021/05/05 09:57:13;;;;;;;1.77;1.67;;;;;;;17.77;55.24;98994.63;20819993;28;20623;-61
2021/05/05 10:07:13;;;;;;;1.80;1.60;;;;;;;17.23;61.29;99002.59;20819657;28;20262;-61
2021/05/05 10:17:14;;;;;;;3.13;1.80;;;;;;;16.73;63.54;98984.84;20818488;28;20274;-61
2021/05/05 10:27:14;;;;;;;1.87;1.33;;;;;;;16.55;65.39;98989.50;20816505;28;20251;-62
2021/05/05 10:37:15;;;;;;;1.88;1.70;;;;;;;16.21;65.95;98997.75;20815586;28;20250;-61
2021/05/05 10:47:33;;;;;;;2.23;1.80;;;;;;;15.66;68.65;98998.31;20814458;28;20216;-61
2021/05/05 10:57:37;;;;;;;2.77;2.07;;;;;;;15.32;73.21;99003.69;20815412;28;20764;-61
2021/05/05 11:07:57;;;;;;;3.17;2.20;;;;;;;14.71;77.55;99022.63;20815368;28;20214;-68
2021/05/05 11:17:57;;;;;;;3.50;2.87;;;;;;;14.12;81.87;99017.88;20814718;28;20238;-63
2021/05/05 11:27:59;;;;;;;15.30;9.03;;;;;;;13.74;86.88;99032.41;20814951;28;20222;-68
2021/05/05 11:38:20;;;;;;;3.90;3.50;;;;;;;13.57;91.26;99042.91;20812263;28;20229;-69
2021/05/05 11:48:32;;;;;;;7.50;4.80;;;;;;;13.51;94.73;99056.06;20817695;28;20581;-64
2021/05/05 11:58:33;;;;;;;3.73;2.60;;;;;;;13.69;93.65;99055.13;20813567;28;20245;-64
2021/05/05 12:08:36;;;;;;;2.70;2.23;;;;;;;13.62;91.41;99047.84;20850343;28;20734;-62
2021/05/05 12:18:47;;;;;;;3.70;2.43;;;;;;;13.14;92.87;99038.16;20828391;28;20712;-65
2021/05/05 12:28:49;;;;;;;5.43;2.43;;;;;;;12.88;94.03;99042.44;20828002;28;20216;-67
2021/05/05 12:38:54;;;;;;;2.37;2.07;;;;;;;12.72;96.03;99037.66;20825518;28;20223;-67
2021/05/05 12:48:56;;;;;;;3.33;2.50;;;;;;;12.48;96.82;99051.50;20824734;28;20611;-67
2021/05/05 12:58:57;;;;;;;2.17;1.90;;;;;;;12.24;96.20;99069.78;20825264;28;20877;-62
2021/05/05 13:09:09;;;;;;;2.63;2.43;;;;;;;12.43;96.14;99061.78;20819931;28;20244;-61
2021/05/05 13:39:37;;;;;;;2.90;2.30;;;;;;;13.14;88.91;99006.03;20836560;28;20227;-64
2021/05/05 13:49:42;;;;;;;2.30;2.07;;;;;;;12.77;89.46;99008.66;20837297;28;20279;-63
2021/05/05 13:59:43;;;;;;;2.93;2.30;;;;;;;12.30;91.84;99005.06;20838028;28;20778;-64
2021/05/05 14:09:43;;;;;;;3.03;2.67;;;;;;;11.83;92.30;98991.50;20834784;28;20231;-63
2021/05/05 14:19:44;;;;;;;2.37;2.17;;;;;;;12.12;94.50;99022.78;20865223;28;20253;-63
2021/05/05 14:29:44;;;;;;;2.78;2.35;;;;;;;12.26;92.93;99035.72;20896711;28;20309;-63
2021/05/05 14:39:45;;;;;;;2.87;2.27;;;;;;;12.19;93.40;99016.75;20899333;28;20239;-63
2021/05/05 14:49:49;;;;;;;3.70;2.80;;;;;;;12.08;92.66;98994.63;20898205;28;20346;-62
2021/05/05 14:59:50;;;;;;;2.60;2.40;;;;;;;12.15;92.03;98998.44;20837963;28;20321;-62
2021/05/05 15:50:47;;;;;;;2.90;2.67;;;;;;;12.97;89.73;98990.69;20833241;28;20227;-63
2021/05/05 16:00:58;;;;;;;3.03;2.67;;;;;;;13.16;87.26;98987.94;20874571;28;20333;-65
2021/05/05 17:12:29;;;;;;;4.73;4.17;;;;;;;10.92;98.47;98956.94;21072458;28;20233;-59
2021/05/05 17:22:36;;;;;;;6.20;4.90;;;;;;;10.88;99.66;98968.84;21071756;28;20236;-58
2021/05/05 17:43:29;;;;;;;4.87;4.17;;;;;;;10.49;100.00;99012.31;20944470;28;20230;-66
2021/05/05 18:14:21;;;;;;;5.40;4.40;;;;;;;10.11;100.00;98997.66;20906069;28;20632;-61
2021/05/05 18:34:29;;;;;;;7.13;5.63;;;;;;;9.86;100.00;98984.69;20911346;28;21607;-60
2021/05/05 22:00:12;;;;;;;33.30;11.60;;;;;;;9.09;89.00;99151.50;20640041;28;20768;-63
2021/05/05 23:31:31;;;;;;;8.73;4.60;;;;;;;7.48;87.57;99207.59;20940449;28;20246;-63
